Time;durP1;ratioP1;P1;durP2;ratioP2;P2;SDS_P1;SDS_P2;PMS_P1;PMS_P2;Temp;Humidity;BMP_temperature;BMP_pressure;BME280_temperature;BME280_humidity;BME280_pressure;Samples;Min_cycle;Max_cycle;Signal;HPM_P1;HPM_P2
2022/12/23 00:00:18;;;;;;;9.07;1.58;;;10.30;99.90;;;;;;5095533;27;20030;-74
2022/12/23 00:02:44;;;;;;;6.13;1.48;;;10.30;99.90;;;;;;5115387;27;20062;-74
2022/12/23 00:05:10;;;;;;;2.92;1.10;;;10.30;99.90;;;;;;5115819;27;20036;-72
2022/12/23 00:07:36;;;;;;;3.90;1.10;;;10.30;99.90;;;;;;5112509;27;20569;-73
2022/12/23 00:10:02;;;;;;;6.05;1.05;;;10.20;99.90;;;;;;5104429;27;20067;-72
2022/12/23 00:15:12;;;;;;;4.15;0.98;;;10.30;99.90;;;;;;5108986;28;20119;-73
2022/12/23 00:17:43;;;;;;;2.20;0.63;;;10.30;99.90;;;;;;5112647;28;20020;-74
2022/12/23 00:20:12;;;;;;;2.42;1.02;;;10.30;99.90;;;;;;5106600;28;20020;-74
2022/12/23 00:25:43;;;;;;;2.30;0.70;;;10.30;99.90;;;;;;5098229;28;20529;-72
2022/12/23 00:28:17;;;;;;;1.77;0.60;;;10.20;99.90;;;;;;5110548;28;20073;-74
2022/12/23 00:30:59;;;;;;;1.80;0.77;;;10.20;99.90;;;;;;5110776;28;20028;-73
2022/12/23 00:33:28;;;;;;;3.90;1.13;;;10.20;99.90;;;;;;5101027;28;20058;-73
2022/12/23 00:35:53;;;;;;;2.53;0.80;;;10.20;99.90;;;;;;5113002;28;20379;-73
2022/12/23 00:43:50;;;;;;;1.85;0.60;;;10.30;99.90;;;;;;5099486;28;20063;-74
2022/12/23 00:46:16;;;;;;;0.90;0.35;;;10.40;99.90;;;;;;5086017;28;20028;-74
2022/12/23 00:51:26;;;;;;;1.00;0.63;;;10.40;99.90;;;;;;5109414;28;20111;-73
2022/12/23 00:53:51;;;;;;;2.30;1.58;;;10.40;99.90;;;;;;5111055;28;20110;-73
2022/12/23 00:56:17;;;;;;;1.67;1.30;;;10.40;99.90;;;;;;5099941;28;20495;-73
2022/12/23 00:58:43;;;;;;;1.10;0.77;;;10.40;99.90;;;;;;5105012;28;20069;-73
2022/12/23 01:06:37;;;;;;;0.75;0.65;;;10.30;99.90;;;;;;5110080;28;20067;-73
2022/12/23 01:09:03;;;;;;;1.75;0.80;;;10.30;99.90;;;;;;5110740;28;20023;-73
2022/12/23 01:11:29;;;;;;;0.80;0.80;;;10.40;99.90;;;;;;5109660;28;20031;-72
2022/12/23 01:13:55;;;;;;;3.03;0.70;;;10.30;99.90;;;;;;5102610;28;20034;-72
2022/12/23 01:16:20;;;;;;;0.98;0.60;;;10.30;99.90;;;;;;5103798;28;20042;-73
2022/12/23 01:18:46;;;;;;;0.70;0.52;;;10.30;99.90;;;;;;5109872;28;20106;-73
2022/12/23 01:21:12;;;;;;;0.90;0.65;;;10.30;99.90;;;;;;5091532;28;20118;-72
2022/12/23 01:23:38;;;;;;;1.02;0.70;;;10.30;99.90;;;;;;5110471;28;20479;-73
2022/12/23 01:26:06;;;;;;;1.02;0.80;;;10.30;99.90;;;;;;5110147;28;20031;-72
2022/12/23 01:28:32;;;;;;;1.20;0.60;;;10.30;99.90;;;;;;5096989;28;20464;-72
2022/12/23 01:31:00;;;;;;;1.20;0.43;;;10.20;99.90;;;;;;5108145;28;20040;-73
2022/12/23 01:33:26;;;;;;;0.40;0.40;;;10.20;99.90;;;;;;5105639;28;20024;-73
2022/12/23 01:35:57;;;;;;;1.25;0.57;;;10.30;99.90;;;;;;5105266;28;20031;-73
2022/12/23 01:38:23;;;;;;;0.63;0.40;;;10.20;99.90;;;;;;5106335;28;20043;-73
2022/12/23 01:40:49;;;;;;;0.40;0.30;;;10.20;99.90;;;;;;5108256;28;20081;-73
2022/12/23 01:43:17;;;;;;;0.65;0.20;;;10.20;99.90;;;;;;5103441;28;20105;-73
2022/12/23 01:45:43;;;;;;;1.85;0.70;;;10.20;99.90;;;;;;5106560;28;20046;-72
2022/12/23 01:48:23;;;;;;;1.75;0.45;;;10.20;99.90;;;;;;5109947;28;20027;-72
2022/12/23 01:51:05;;;;;;;1.00;0.30;;;10.20;99.90;;;;;;5110496;28;20077;-71
2022/12/23 01:53:38;;;;;;;1.77;0.32;;;10.10;99.90;;;;;;5102879;28;20028;-72
2022/12/23 01:56:13;;;;;;;0.47;0.30;;;10.10;99.90;;;;;;5110399;28;20042;-72
2022/12/23 01:58:41;;;;;;;0.77;0.43;;;10.00;99.90;;;;;;5102142;28;20050;-72
2022/12/23 02:03:55;;;;;;;0.82;0.40;;;10.00;99.90;;;;;;5095805;28;20027;-73
2022/12/23 02:09:41;;;;;;;1.42;0.50;;;10.00;99.90;;;;;;5104135;28;20043;-73
2022/12/23 02:12:32;;;;;;;2.22;0.43;;;10.00;99.90;;;;;;5102203;28;20036;-72
2022/12/23 02:18:07;;;;;;;0.65;0.43;;;10.00;99.90;;;;;;5109019;28;20042;-73
2022/12/23 02:20:58;;;;;;;1.42;0.73;;;9.90;99.90;;;;;;5095128;28;20074;-73
2022/12/23 02:23:37;;;;;;;3.10;0.73;;;9.90;99.90;;;;;;5102623;28;20106;-73
2022/12/23 02:26:24;;;;;;;1.13;0.50;;;9.90;99.90;;;;;;5104609;28;20487;-72
2022/12/23 02:29:05;;;;;;;1.00;0.60;;;9.90;99.90;;;;;;5109203;28;20469;-73
2022/12/23 02:31:46;;;;;;;1.65;0.68;;;9.90;99.90;;;;;;5106855;28;20559;-72
2022/12/23 02:34:20;;;;;;;0.85;0.70;;;9.90;99.90;;;;;;5098201;28;20114;-73
2022/12/23 02:36:59;;;;;;;1.25;0.40;;;9.90;99.90;;;;;;5107181;28;20023;-73
2022/12/23 02:39:38;;;;;;;0.95;0.57;;;9.90;99.90;;;;;;5102797;28;20039;-72
2022/12/23 02:42:14;;;;;;;1.67;0.55;;;9.90;99.90;;;;;;5107029;28;20414;-73
2022/12/23 02:44:55;;;;;;;1.25;0.60;;;9.90;99.90;;;;;;5102270;28;20067;-73
2022/12/23 02:47:55;;;;;;;2.58;1.65;;;9.80;99.90;;;;;;5107644;28;20028;-73
2022/12/23 02:50:31;;;;;;;3.83;1.58;;;9.80;99.90;;;;;;5079290;28;20032;-72
2022/12/23 02:53:02;;;;;;;2.05;1.00;;;9.80;99.90;;;;;;5109740;28;20027;-73
2022/12/23 02:55:35;;;;;;;1.38;1.27;;;9.70;99.90;;;;;;5107734;28;20024;-73
2022/12/23 02:58:06;;;;;;;2.50;0.90;;;9.70;99.90;;;;;;5101829;28;20024;-73
2022/12/23 03:00:32;;;;;;;1.65;0.73;;;9.70;99.90;;;;;;5111100;28;20015;-73
2022/12/23 03:02:58;;;;;;;1.00;0.43;;;9.70;99.90;;;;;;5112671;28;20475;-73
2022/12/23 03:05:34;;;;;;;0.35;0.30;;;9.70;99.90;;;;;;5110827;28;20058;-74
2022/12/23 03:08:03;;;;;;;0.80;0.40;;;9.70;99.90;;;;;;5101658;28;20027;-73
2022/12/23 03:11:07;;;;;;;1.05;0.43;;;9.70;99.90;;;;;;5103838;28;20039;-74
2022/12/23 03:14:12;;;;;;;1.80;0.50;;;9.70;99.90;;;;;;5095175;28;20509;-73
2022/12/23 03:17:07;;;;;;;2.55;0.80;;;9.70;99.90;;;;;;5112825;28;20062;-73
2022/12/23 03:19:48;;;;;;;7.13;1.17;;;9.70;99.90;;;;;;5115080;27;20054;-74
2022/12/23 03:22:57;;;;;;;3.47;0.97;;;9.70;99.90;;;;;;5109483;28;20477;-73
2022/12/23 03:25:37;;;;;;;3.25;0.70;;;9.70;99.90;;;;;;5099273;28;20071;-74
2022/12/23 03:28:07;;;;;;;2.88;1.27;;;9.70;99.90;;;;;;5117472;27;20016;-74
2022/12/23 03:30:34;;;;;;;4.40;1.30;;;9.60;99.90;;;;;;5118961;27;20036;-73
2022/12/23 03:33:12;;;;;;;4.50;0.93;;;9.60;99.90;;;;;;5112606;27;20015;-72
2022/12/23 03:35:50;;;;;;;7.72;1.13;;;9.70;99.90;;;;;;5120082;27;20019;-73
2022/12/23 03:38:19;;;;;;;9.25;1.40;;;9.70;99.90;;;;;;5112149;27;20027;-73
2022/12/23 03:40:51;;;;;;;6.47;1.42;;;9.70;99.90;;;;;;5112833;27;20403;-74
2022/12/23 03:43:23;;;;;;;9.15;1.38;;;9.70;99.90;;;;;;5110591;27;20019;-74
2022/12/23 03:45:55;;;;;;;7.60;1.67;;;9.70;99.90;;;;;;5118057;27;20057;-73
2022/12/23 03:48:49;;;;;;;6.32;1.60;;;9.70;99.90;;;;;;5115069;27;20027;-74
2022/12/23 03:51:27;;;;;;;5.80;1.45;;;9.60;99.90;;;;;;5085122;27;20059;-72
2022/12/23 03:54:00;;;;;;;8.85;1.63;;;9.60;99.90;;;;;;5100356;28;20019;-74
2022/12/23 03:56:37;;;;;;;8.50;1.40;;;9.60;99.90;;;;;;5105904;27;20407;-74
2022/12/23 03:59:20;;;;;;;10.35;1.30;;;9.70;99.90;;;;;;5111361;27;20108;-73
2022/12/23 04:02:12;;;;;;;5.82;0.98;;;9.70;99.90;;;;;;5107021;27;20035;-73
2022/12/23 04:04:59;;;;;;;2.55;0.98;;;9.70;99.90;;;;;;5113931;27;20031;-72
2022/12/23 04:07:35;;;;;;;8.48;1.10;;;9.70;99.90;;;;;;5108286;27;20030;-73
2022/12/23 04:10:02;;;;;;;4.13;1.20;;;9.70;99.90;;;;;;5093836;28;20486;-73
2022/12/23 04:12:29;;;;;;;2.90;1.17;;;9.70;99.90;;;;;;5089598;28;20032;-73
2022/12/23 04:14:54;;;;;;;4.22;1.33;;;9.70;99.90;;;;;;5115611;27;20028;-73
2022/12/23 04:17:20;;;;;;;4.38;1.10;;;9.70;99.90;;;;;;5114574;27;20031;-73
2022/12/23 04:19:46;;;;;;;5.30;1.10;;;9.70;99.90;;;;;;5112692;27;20035;-73
2022/12/23 04:22:13;;;;;;;5.22;1.25;;;9.70;99.90;;;;;;5103448;28;20115;-73
2022/12/23 04:24:39;;;;;;;4.43;1.55;;;9.60;99.90;;;;;;5107468;27;20028;-74
2022/12/23 04:27:07;;;;;;;2.72;1.13;;;9.60;99.90;;;;;;5108199;27;20034;-74
2022/12/23 04:29:32;;;;;;;4.25;0.88;;;9.50;99.90;;;;;;5107632;28;20509;-73
2022/12/23 04:31:58;;;;;;;3.25;1.02;;;9.50;99.90;;;;;;5107787;28;20043;-73
2022/12/23 04:34:23;;;;;;;3.97;1.17;;;9.50;99.90;;;;;;5107147;27;20020;-73
2022/12/23 04:36:49;;;;;;;5.47;1.25;;;9.50;99.90;;;;;;5094773;27;20077;-74
2022/12/23 04:39:15;;;;;;;5.72;0.90;;;9.50;99.90;;;;;;5105031;27;20068;-74
2022/12/23 04:41:41;;;;;;;5.97;1.52;;;9.50;99.90;;;;;;5103612;28;20027;-73
2022/12/23 04:44:07;;;;;;;2.47;1.05;;;9.50;99.90;;;;;;5101133;28;20056;-72
2022/12/23 04:46:33;;;;;;;2.08;0.90;;;9.50;99.90;;;;;;5093142;28;20176;-74
2022/12/23 04:48:59;;;;;;;2.33;0.82;;;9.50;99.90;;;;;;5108308;27;20080;-73
2022/12/23 04:51:28;;;;;;;3.53;0.60;;;9.40;99.90;;;;;;5114345;27;20043;-73
2022/12/23 04:53:54;;;;;;;4.05;1.65;;;9.50;99.90;;;;;;5107984;27;20096;-74
2022/12/23 04:56:19;;;;;;;1.80;0.52;;;9.50;99.90;;;;;;5101647;28;20024;-72
2022/12/23 04:58:46;;;;;;;2.97;0.70;;;9.50;99.90;;;;;;5110692;28;20019;-74
2022/12/23 05:01:12;;;;;;;4.07;0.90;;;9.60;99.90;;;;;;5106242;27;20057;-72
2022/12/23 05:03:38;;;;;;;2.78;1.35;;;9.50;99.90;;;;;;5106594;27;20027;-74
2022/12/23 05:06:04;;;;;;;7.30;1.25;;;9.50;99.90;;;;;;5114776;27;20051;-73
2022/12/23 05:08:31;;;;;;;1.70;0.73;;;9.50;99.90;;;;;;5111813;27;20068;-74
2022/12/23 05:10:57;;;;;;;3.35;0.80;;;9.50;99.90;;;;;;5106790;27;20502;-73
2022/12/23 05:13:22;;;;;;;6.28;1.00;;;9.50;99.90;;;;;;5114013;27;20026;-74
2022/12/23 05:15:50;;;;;;;1.65;0.70;;;9.50;99.90;;;;;;5109753;28;20110;-73
2022/12/23 05:18:16;;;;;;;2.22;0.60;;;9.50;99.90;;;;;;5107598;28;20031;-73
2022/12/23 05:20:42;;;;;;;4.95;0.80;;;9.50;99.90;;;;;;5109717;28;20046;-73
2022/12/23 05:23:08;;;;;;;3.38;0.90;;;9.50;99.90;;;;;;5106710;28;20031;-72
2022/12/23 05:25:35;;;;;;;5.20;1.08;;;9.50;99.90;;;;;;5108031;28;20019;-72
2022/12/23 05:28:02;;;;;;;3.08;0.70;;;9.50;99.90;;;;;;5107644;28;20020;-73
2022/12/23 05:30:28;;;;;;;7.13;1.88;;;9.40;99.90;;;;;;5101032;28;20055;-73
2022/12/23 05:32:55;;;;;;;2.58;0.70;;;9.40;99.90;;;;;;5109554;28;20475;-72
2022/12/23 05:35:22;;;;;;;2.42;0.60;;;9.50;99.90;;;;;;5109023;28;20019;-74
2022/12/23 05:37:48;;;;;;;3.28;0.52;;;9.50;99.90;;;;;;5101112;28;20072;-74
2022/12/23 05:40:13;;;;;;;10.05;1.88;;;9.40;99.90;;;;;;5109670;28;20023;-73
2022/12/23 05:42:40;;;;;;;5.63;0.95;;;9.40;99.90;;;;;;5109337;28;20031;-73
2022/12/23 05:45:06;;;;;;;3.30;0.43;;;9.40;99.90;;;;;;5091840;28;20092;-73
2022/12/23 05:47:32;;;;;;;5.30;0.80;;;9.40;99.90;;;;;;5102768;28;20027;-73
2022/12/23 05:49:57;;;;;;;3.05;0.82;;;9.40;99.90;;;;;;5101656;28;20039;-73
2022/12/23 05:52:23;;;;;;;4.68;0.90;;;9.40;99.90;;;;;;5107198;28;20031;-74
2022/12/23 05:54:49;;;;;;;4.57;0.93;;;9.40;99.90;;;;;;5110284;28;20076;-73
2022/12/23 05:57:14;;;;;;;8.35;1.15;;;9.50;99.90;;;;;;5108020;28;20019;-72
2022/12/23 05:59:41;;;;;;;6.00;2.13;;;9.50;99.90;;;;;;5110024;28;20507;-72
2022/12/23 06:02:07;;;;;;;15.20;1.40;;;9.40;99.90;;;;;;5113889;28;20049;-75
2022/12/23 06:04:32;;;;;;;7.53;1.02;;;9.50;99.90;;;;;;5081813;28;20450;-74
2022/12/23 06:06:58;;;;;;;7.82;1.20;;;9.40;99.90;;;;;;5108254;28;20069;-75
2022/12/23 06:09:24;;;;;;;6.25;0.95;;;9.50;99.90;;;;;;5108081;28;20040;-73
2022/12/23 06:11:50;;;;;;;3.65;0.88;;;9.50;99.90;;;;;;5109927;28;20479;-75
2022/12/23 06:14:16;;;;;;;9.70;1.08;;;9.50;99.90;;;;;;5109510;28;20039;-76
2022/12/23 06:16:41;;;;;;;4.93;1.08;;;9.40;99.90;;;;;;5109804;28;20023;-75
2022/12/23 06:19:07;;;;;;;5.00;1.58;;;9.40;99.90;;;;;;5110025;28;20024;-74
2022/12/23 06:21:33;;;;;;;9.05;1.95;;;9.40;99.90;;;;;;5105031;28;20027;-75
2022/12/23 06:23:58;;;;;;;6.03;1.88;;;9.40;99.90;;;;;;5110274;28;20118;-75
2022/12/23 06:26:25;;;;;;;7.40;1.50;;;9.40;99.90;;;;;;5087271;28;20055;-75
2022/12/23 06:28:50;;;;;;;6.22;0.95;;;9.30;99.90;;;;;;5108004;28;20016;-74
2022/12/23 06:31:16;;;;;;;6.45;1.17;;;9.40;99.90;;;;;;5109996;28;20031;-74
2022/12/23 06:33:42;;;;;;;1.88;0.80;;;9.30;99.90;;;;;;5113797;28;20023;-74
2022/12/23 06:36:08;;;;;;;4.65;1.38;;;9.40;99.90;;;;;;5113856;28;20564;-74
2022/12/23 06:38:33;;;;;;;4.45;1.27;;;9.40;99.90;;;;;;5103707;28;20027;-76
2022/12/23 06:40:59;;;;;;;6.32;2.05;;;9.40;99.90;;;;;;5103681;28;20407;-76
2022/12/23 06:43:26;;;;;;;11.00;1.88;;;9.40;99.90;;;;;;5109855;28;20027;-75
2022/12/23 06:45:51;;;;;;;6.30;2.00;;;9.40;99.90;;;;;;5115243;28;20031;-75
2022/12/23 06:48:17;;;;;;;4.68;1.73;;;9.30;99.90;;;;;;5094261;28;20084;-75
2022/12/23 06:50:43;;;;;;;5.18;2.28;;;9.30;99.90;;;;;;5107187;28;20019;-75
2022/12/23 06:53:09;;;;;;;8.95;2.65;;;9.40;99.90;;;;;;5111015;28;20059;-76
2022/12/23 06:55:35;;;;;;;6.85;2.90;;;9.30;99.90;;;;;;5121778;27;20068;-74
2022/12/23 06:58:01;;;;;;;6.80;2.13;;;9.40;99.90;;;;;;5117753;28;20115;-75
2022/12/23 07:00:26;;;;;;;6.53;2.03;;;9.40;99.90;;;;;;5116912;28;20031;-74
2022/12/23 07:02:53;;;;;;;5.15;1.98;;;9.40;99.90;;;;;;5095929;28;20030;-76
2022/12/23 07:05:19;;;;;;;4.25;1.52;;;9.30;99.90;;;;;;5114479;28;20069;-75
2022/12/23 07:07:45;;;;;;;7.38;1.92;;;9.40;99.90;;;;;;5112901;28;20028;-74
2022/12/23 07:10:11;;;;;;;7.13;2.33;;;9.40;99.90;;;;;;5115432;28;20061;-74
2022/12/23 07:12:37;;;;;;;6.53;2.13;;;9.30;99.90;;;;;;5104289;28;20037;-74
2022/12/23 07:15:04;;;;;;;3.88;1.90;;;9.40;99.90;;;;;;5117932;28;20023;-73
2022/12/23 07:17:29;;;;;;;6.47;2.35;;;9.40;99.90;;;;;;5108587;28;20028;-75
2022/12/23 07:19:55;;;;;;;9.85;2.03;;;10.50;99.90;;;;;;5120198;28;20548;-76
2022/12/23 07:22:20;;;;;;;5.93;2.30;;;10.50;99.90;;;;;;5112278;28;20023;-75
2022/12/23 07:24:46;;;;;;;5.10;2.35;;;10.60;99.90;;;;;;5112898;28;20559;-75
2022/12/23 07:27:12;;;;;;;8.02;2.72;;;10.50;99.90;;;;;;5115381;27;20023;-74
2022/12/23 07:29:38;;;;;;;3.33;1.77;;;10.60;99.90;;;;;;5113906;28;20471;-77
2022/12/23 07:32:04;;;;;;;4.68;1.90;;;10.60;99.90;;;;;;5113634;27;20042;-73
2022/12/23 07:34:29;;;;;;;4.65;2.25;;;10.50;99.90;;;;;;5115513;27;20020;-70
2022/12/23 07:36:55;;;;;;;4.10;2.45;;;10.50;99.90;;;;;;5099221;27;20019;-73
2022/12/23 07:39:21;;;;;;;8.30;2.63;;;10.50;99.90;;;;;;5111442;27;20420;-74
2022/12/23 07:41:46;;;;;;;14.20;2.92;;;10.50;99.90;;;;;;5110729;28;20032;-73
2022/12/23 07:44:12;;;;;;;8.57;2.50;;;10.60;99.90;;;;;;5104940;28;20028;-74
2022/12/23 07:46:38;;;;;;;6.63;2.75;;;10.50;99.90;;;;;;5103201;28;20066;-73
2022/12/23 07:49:04;;;;;;;8.02;2.95;;;10.50;99.90;;;;;;5098150;28;20024;-73
2022/12/23 07:51:30;;;;;;;6.88;2.53;;;10.60;99.90;;;;;;5109881;28;20138;-73
2022/12/23 07:53:56;;;;;;;6.75;2.45;;;10.60;99.90;;;;;;5111318;28;20396;-74
2022/12/23 07:56:22;;;;;;;7.30;2.25;;;10.60;99.90;;;;;;5107679;28;20089;-74
2022/12/23 07:58:49;;;;;;;8.02;1.95;;;10.60;99.90;;;;;;5090986;28;20383;-74
2022/12/23 08:01:15;;;;;;;4.50;2.15;;;10.60;99.90;;;;;;5108575;28;20028;-72
2022/12/23 08:03:40;;;;;;;7.18;4.40;;;10.60;99.90;;;;;;5106891;28;20081;-74
2022/12/23 08:06:11;;;;;;;8.35;2.92;;;10.70;99.90;;;;;;5102692;28;20050;-74
2022/12/23 08:08:38;;;;;;;8.18;3.05;;;10.70;99.90;;;;;;5106511;28;20036;-74
2022/12/23 08:11:06;;;;;;;2.83;1.80;;;10.80;99.90;;;;;;5107902;28;20132;-73
2022/12/23 08:13:33;;;;;;;4.88;1.63;;;10.80;99.90;;;;;;5101001;28;20063;-73
2022/12/23 08:16:00;;;;;;;6.40;2.88;;;10.80;99.90;;;;;;5108797;28;20451;-74
2022/12/23 08:18:28;;;;;;;11.70;2.67;;;10.80;99.90;;;;;;5109584;28;20020;-75
2022/12/23 08:20:56;;;;;;;3.90;1.80;;;10.80;99.90;;;;;;5111747;28;20042;-74
2022/12/23 08:23:21;;;;;;;4.10;1.83;;;10.80;99.90;;;;;;5109367;28;20414;-74
2022/12/23 08:25:47;;;;;;;3.30;1.60;;;10.80;99.90;;;;;;5102712;27;20438;-73
2022/12/23 08:28:13;;;;;;;2.15;1.30;;;10.90;99.90;;;;;;5098603;28;20383;-75
2022/12/23 08:30:39;;;;;;;4.55;1.10;;;11.00;99.90;;;;;;5106516;27;20510;-74
2022/12/23 08:33:04;;;;;;;1.02;0.50;;;11.10;99.90;;;;;;5107487;27;20032;-74
2022/12/23 08:35:30;;;;;;;4.72;1.33;;;11.20;99.90;;;;;;5109398;27;20019;-73
2022/12/23 08:37:55;;;;;;;1.58;0.90;;;11.30;99.90;;;;;;5114766;27;20235;-74
2022/12/23 08:40:22;;;;;;;2.55;1.08;;;11.30;99.90;;;;;;5106745;27;20024;-75
2022/12/23 08:42:48;;;;;;;3.58;1.02;;;11.40;99.90;;;;;;5094067;28;20118;-74
2022/12/23 08:45:14;;;;;;;2.15;0.60;;;11.50;99.90;;;;;;5108440;27;20109;-74
2022/12/23 08:47:40;;;;;;;2.65;0.85;;;11.70;99.90;;;;;;5118261;27;20023;-73
2022/12/23 08:50:06;;;;;;;3.08;1.08;;;11.90;99.90;;;;;;5111715;27;20057;-73
2022/12/23 08:52:32;;;;;;;0.77;0.43;;;12.00;99.90;;;;;;5108635;27;20155;-74
2022/12/23 08:54:57;;;;;;;2.60;0.85;;;12.20;99.90;;;;;;5111020;28;20031;-73
2022/12/23 08:57:23;;;;;;;0.60;0.30;;;12.30;99.90;;;;;;5107959;27;20035;-74
2022/12/23 08:59:50;;;;;;;5.05;0.65;;;12.40;99.90;;;;;;5121659;27;20035;-73
2022/12/23 09:02:16;;;;;;;7.25;1.80;;;12.70;99.90;;;;;;5115546;27;20062;-73
2022/12/23 09:04:42;;;;;;;6.65;1.00;;;12.80;99.90;;;;;;5106726;27;20133;-73
2022/12/23 09:07:07;;;;;;;6.45;1.60;;;13.00;99.90;;;;;;5107267;28;20120;-72
2022/12/23 09:09:33;;;;;;;11.43;1.13;;;13.10;99.90;;;;;;5113050;27;20045;-73
2022/12/23 09:11:58;;;;;;;4.70;0.90;;;13.20;99.90;;;;;;5109555;27;20027;-72
2022/12/23 09:14:24;;;;;;;5.45;1.13;;;13.20;99.90;;;;;;5107589;28;20058;-72
2022/12/23 09:16:51;;;;;;;5.45;0.68;;;13.40;99.90;;;;;;5118617;27;20117;-73
2022/12/23 09:19:16;;;;;;;2.83;0.80;;;13.40;99.90;;;;;;5112404;27;20032;-75
2022/12/23 09:21:42;;;;;;;9.90;1.10;;;13.40;99.90;;;;;;5112482;27;20430;-72
2022/12/23 09:24:08;;;;;;;8.18;0.90;;;13.50;99.90;;;;;;5116861;27;20038;-72
2022/12/23 09:26:33;;;;;;;3.65;1.05;;;13.50;99.90;;;;;;5106556;27;20092;-71
2022/12/23 09:28:59;;;;;;;6.00;0.73;;;13.50;99.90;;;;;;5119381;27;20035;-71
2022/12/23 09:31:25;;;;;;;2.38;0.80;;;13.40;99.90;;;;;;5111037;27;20047;-73
2022/12/23 09:33:52;;;;;;;3.50;0.40;;;13.50;99.90;;;;;;5119021;27;20022;-73
2022/12/23 09:36:18;;;;;;;4.40;0.77;;;13.50;99.90;;;;;;5110632;27;20035;-72
2022/12/23 09:38:44;;;;;;;2.67;0.80;;;13.50;99.90;;;;;;5117084;27;20092;-71
2022/12/23 09:41:41;;;;;;;9.20;1.00;;;13.50;99.90;;;;;;5110270;28;20028;-71
2022/12/23 09:44:29;;;;;;;18.88;2.30;;;13.50;99.90;;;;;;5116796;27;20620;-71
2022/12/23 09:47:03;;;;;;;17.45;2.30;;;13.50;99.90;;;;;;5111279;28;20107;-71
2022/12/23 09:49:29;;;;;;;13.98;2.90;;;13.50;99.90;;;;;;5108189;28;20024;-70
2022/12/23 09:52:01;;;;;;;16.70;2.47;;;13.60;99.90;;;;;;5101831;28;20039;-71
2022/12/23 09:54:32;;;;;;;17.98;2.13;;;13.60;99.90;;;;;;5108347;28;20032;-69
2022/12/23 09:57:03;;;;;;;19.70;2.50;;;13.60;99.90;;;;;;5111032;28;20031;-70
2022/12/23 09:59:51;;;;;;;28.05;4.47;;;13.60;99.90;;;;;;5087762;28;20035;-70
2022/12/23 10:02:25;;;;;;;20.30;4.63;;;13.50;99.90;;;;;;5107210;28;20060;-70
2022/12/23 10:04:57;;;;;;;23.63;4.72;;;13.50;99.90;;;;;;5120470;27;20505;-69
2022/12/23 10:07:30;;;;;;;17.75;3.33;;;13.50;99.90;;;;;;5124781;27;20127;-70
2022/12/23 10:10:02;;;;;;;25.38;3.45;;;13.50;99.90;;;;;;5123843;27;20020;-70
2022/12/23 10:12:38;;;;;;;17.08;2.78;;;13.50;99.90;;;;;;5105265;28;20085;-70
2022/12/23 10:15:24;;;;;;;21.10;2.90;;;13.50;99.90;;;;;;5115234;27;20019;-69
2022/12/23 10:17:54;;;;;;;21.38;3.83;;;13.50;99.90;;;;;;5095124;28;20027;-68
2022/12/23 10:20:33;;;;;;;20.15;3.67;;;13.40;99.90;;;;;;5118997;27;20024;-69
2022/12/23 10:23:02;;;;;;;20.05;2.95;;;13.40;99.90;;;;;;5111371;27;20023;-70
2022/12/23 10:25:36;;;;;;;29.13;4.00;;;13.40;99.90;;;;;;5109338;27;20020;-71
2022/12/23 10:28:01;;;;;;;21.25;3.40;;;13.30;99.90;;;;;;5107741;27;20424;-69
2022/12/23 10:30:32;;;;;;;24.77;3.60;;;13.30;99.90;;;;;;5125940;27;20034;-71
2022/12/23 10:33:10;;;;;;;29.30;3.80;;;13.20;99.90;;;;;;5118342;27;20054;-70
2022/12/23 10:36:08;;;;;;;33.10;3.75;;;13.20;99.90;;;;;;5101884;28;20044;-69
2022/12/23 10:39:01;;;;;;;26.05;3.33;;;13.10;99.90;;;;;;5118785;27;20027;-70
2022/12/23 10:41:32;;;;;;;29.73;4.28;;;13.10;99.90;;;;;;5113166;27;20099;-70
2022/12/23 10:44:18;;;;;;;23.67;3.63;;;13.10;99.90;;;;;;5122612;27;20034;-70
2022/12/23 10:47:23;;;;;;;29.48;4.10;;;13.20;99.90;;;;;;5105402;27;20320;-69
2022/12/23 10:50:04;;;;;;;16.00;2.53;;;13.10;99.90;;;;;;5108817;27;20035;-73
2022/12/23 10:52:34;;;;;;;15.02;2.88;;;13.10;99.90;;;;;;5101941;27;20495;-71
2022/12/23 10:55:00;;;;;;;13.07;2.15;;;13.00;99.90;;;;;;5105667;27;20073;-70
2022/12/23 10:57:26;;;;;;;20.85;3.50;;;13.00;99.90;;;;;;5109126;27;20107;-70
2022/12/23 10:59:51;;;;;;;25.48;3.58;;;13.00;99.90;;;;;;5124546;27;20023;-70
2022/12/23 11:03:11;;;;;;;28.48;3.20;;;13.00;99.90;;;;;;5112155;27;20031;-70
2022/12/23 11:05:37;;;;;;;32.13;3.28;;;13.10;99.90;;;;;;5104200;27;20088;-70
2022/12/23 11:08:03;;;;;;;28.73;5.00;;;13.00;99.90;;;;;;5115517;27;20035;-69
2022/12/23 11:10:32;;;;;;;34.47;4.43;;;13.10;99.90;;;;;;5111977;28;20031;-71
2022/12/23 11:12:59;;;;;;;39.65;5.78;;;13.10;99.90;;;;;;5104329;28;20028;-70
2022/12/23 11:15:24;;;;;;;30.35;4.25;;;13.10;99.90;;;;;;5116305;27;20031;-69
2022/12/23 11:18:02;;;;;;;22.08;4.05;;;13.00;99.90;;;;;;5111353;28;20114;-70
2022/12/23 11:20:29;;;;;;;29.08;4.85;;;13.10;99.90;;;;;;5109948;27;20396;-70
2022/12/23 11:23:00;;;;;;;40.20;6.15;;;13.00;99.90;;;;;;5111452;28;20750;-68
2022/12/23 11:25:41;;;;;;;29.25;4.60;;;13.00;99.90;;;;;;5119318;27;20345;-70
2022/12/23 11:28:18;;;;;;;28.15;4.95;;;13.00;99.90;;;;;;5120534;27;20024;-70
2022/12/23 11:30:53;;;;;;;37.78;4.63;;;13.00;99.90;;;;;;5109663;28;20092;-69
2022/12/23 11:33:34;;;;;;;37.53;4.97;;;13.00;99.90;;;;;;5120869;27;20055;-70
2022/12/23 11:36:11;;;;;;;36.50;5.22;;;12.90;99.90;;;;;;5115827;27;20023;-69
2022/12/23 11:38:48;;;;;;;44.70;5.85;;;12.90;99.90;;;;;;5106356;27;20423;-70
2022/12/23 11:41:22;;;;;;;36.25;7.05;;;12.80;99.90;;;;;;5113033;27;20335;-69
2022/12/23 11:43:58;;;;;;;34.28;7.20;;;12.80;99.90;;;;;;5104913;28;20019;-70
2022/12/23 11:46:27;;;;;;;40.85;6.15;;;12.80;99.90;;;;;;5086953;28;20047;-69
2022/12/23 11:49:27;;;;;;;38.53;6.35;;;12.80;99.90;;;;;;5113759;27;20043;-69
2022/12/23 11:52:12;;;;;;;46.00;7.95;;;12.70;99.90;;;;;;5053339;27;20035;-70
2022/12/23 11:54:38;;;;;;;46.63;6.85;;;12.70;99.90;;;;;;5105056;27;20088;-70
2022/12/23 11:57:13;;;;;;;53.65;7.50;;;12.80;99.90;;;;;;5114445;27;20425;-70
2022/12/23 11:59:42;;;;;;;42.85;6.50;;;12.80;99.90;;;;;;5119021;27;20471;-70
2022/12/23 12:02:20;;;;;;;30.90;5.68;;;12.70;99.90;;;;;;5115904;27;20027;-71
2022/12/23 12:04:56;;;;;;;42.30;6.35;;;12.70;99.90;;;;;;5113580;27;20024;-70
2022/12/23 12:07:22;;;;;;;45.28;7.97;;;12.70;99.90;;;;;;5108768;28;20400;-70
2022/12/23 12:09:48;;;;;;;47.75;7.88;;;12.70;99.90;;;;;;5097789;27;20440;-69
2022/12/23 12:12:19;;;;;;;38.22;6.65;;;12.70;99.90;;;;;;5108037;27;20031;-70
2022/12/23 12:14:49;;;;;;;47.80;7.53;;;12.60;99.90;;;;;;5111512;28;20016;-70
2022/12/23 12:17:15;;;;;;;48.47;7.82;;;12.70;99.90;;;;;;5109633;28;20031;-70
2022/12/23 12:19:58;;;;;;;49.30;8.40;;;12.70;99.90;;;;;;5112034;27;20034;-69
2022/12/23 12:22:35;;;;;;;47.45;8.50;;;12.70;99.90;;;;;;5107255;27;20074;-71
2022/12/23 12:25:15;;;;;;;48.35;8.27;;;12.70;99.90;;;;;;5101329;28;20040;-70
2022/12/23 12:27:46;;;;;;;56.60;6.68;;;12.60;99.90;;;;;;5110579;27;20035;-70
2022/12/23 12:30:18;;;;;;;42.97;8.70;;;12.50;99.90;;;;;;5102490;27;20031;-69
2022/12/23 12:33:06;;;;;;;;;;;12.50;99.90;;;;;;5107253;28;20047;-69
2022/12/23 12:35:50;;;;;;;47.80;8.40;;;12.60;99.90;;;;;;5118425;27;19911;-70
2022/12/23 12:38:26;;;;;;;46.75;8.05;;;12.60;99.90;;;;;;5104525;28;20044;-69
2022/12/23 12:41:21;;;;;;;40.40;7.72;;;12.60;99.90;;;;;;5113007;27;20027;-69
2022/12/23 12:44:02;;;;;;;50.78;8.07;;;12.60;99.90;;;;;;5091306;28;20127;-70
2022/12/23 12:46:42;;;;;;;47.17;6.57;;;12.50;99.90;;;;;;5112812;27;20035;-69
2022/12/23 12:49:28;;;;;;;38.65;6.78;;;12.80;99.90;;;;;;5109662;28;20055;-68
2022/12/23 12:52:09;;;;;;;33.85;5.65;;;13.30;99.90;;;;;;5113328;27;20027;-68
2022/12/23 12:55:00;;;;;;;38.97;6.35;;;13.50;99.90;;;;;;5122393;27;20455;-68
2022/12/23 12:57:26;;;;;;;36.22;6.20;;;13.20;99.90;;;;;;5112215;27;20475;-69
2022/12/23 12:59:58;;;;;;;30.60;5.22;;;13.00;99.90;;;;;;5108336;27;20415;-69
2022/12/23 13:02:58;;;;;;;47.28;7.40;;;13.00;99.90;;;;;;5104531;28;20498;-69
2022/12/23 13:05:42;;;;;;;29.13;5.35;;;13.00;99.90;;;;;;5106318;27;20044;-69
2022/12/23 13:08:16;;;;;;;30.63;5.32;;;13.10;99.90;;;;;;5115889;27;20088;-69
2022/12/23 13:10:45;;;;;;;42.25;9.13;;;13.10;99.90;;;;;;5112429;27;20031;-69
2022/12/23 13:13:31;;;;;;;29.23;6.68;;;13.00;99.90;;;;;;5104524;27;20020;-70
2022/12/23 13:16:30;;;;;;;42.38;5.80;;;12.70;99.90;;;;;;5104079;28;20027;-70
2022/12/23 13:19:07;;;;;;;42.33;5.93;;;12.50;99.90;;;;;;5109483;27;20038;-70
2022/12/23 13:21:46;;;;;;;40.92;7.63;;;12.70;99.90;;;;;;5105356;27;20122;-69
2022/12/23 13:24:42;;;;;;;27.48;4.97;;;12.60;99.90;;;;;;5103397;28;20070;-69
2022/12/23 13:27:17;;;;;;;33.13;7.65;;;12.60;99.90;;;;;;5109494;27;20059;-68
2022/12/23 13:30:01;;;;;;;44.83;7.00;;;12.90;99.90;;;;;;5106259;28;20080;-69
2022/12/23 13:32:47;;;;;;;48.63;6.13;;;13.00;99.90;;;;;;5106212;27;20036;-69
2022/12/23 13:35:32;;;;;;;40.75;6.93;;;13.00;99.90;;;;;;5102084;27;20032;-69
2022/12/23 13:38:35;;;;;;;34.03;5.85;;;12.90;99.90;;;;;;5109476;27;20039;-69